sensor_id;sensor_type;location;lat;lon;timestamp;P1;durP1;ratioP1;P2;durP2;ratioP2
21721;SDS011;11023;48.274;7.794;2023-02-28T00:00:29;4.68;;;2.55;;
21721;SDS011;11023;48.274;7.794;2023-02-28T00:02:55;3.72;;;2.20;;
21721;SDS011;11023;48.274;7.794;2023-02-28T00:05:21;5.07;;;2.50;;
21721;SDS011;11023;48.274;7.794;2023-02-28T00:07:49;7.40;;;3.03;;
21721;SDS011;11023;48.274;7.794;2023-02-28T00:10:19;4.47;;;2.67;;
21721;SDS011;11023;48.274;7.794;2023-02-28T00:12:50;4.10;;;2.20;;
21721;SDS011;11023;48.274;7.794;2023-02-28T00:15:17;4.88;;;2.40;;
21721;SDS011;11023;48.274;7.794;2023-02-28T00:17:43;3.55;;;2.20;;
21721;SDS011;11023;48.274;7.794;2023-02-28T00:25:13;5.90;;;2.40;;
21721;SDS011;11023;48.274;7.794;2023-02-28T00:33:20;5.50;;;2.40;;
21721;SDS011;11023;48.274;7.794;2023-02-28T00:36:21;3.63;;;2.00;;
21721;SDS011;11023;48.274;7.794;2023-02-28T00:39:08;3.92;;;2.10;;
21721;SDS011;11023;48.274;7.794;2023-02-28T00:41:40;5.18;;;2.13;;
21721;SDS011;11023;48.274;7.794;2023-02-28T00:44:12;3.40;;;1.98;;
21721;SDS011;11023;48.274;7.794;2023-02-28T00:46:48;4.20;;;2.42;;
21721;SDS011;11023;48.274;7.794;2023-02-28T00:49:17;3.60;;;2.30;;
21721;SDS011;11023;48.274;7.794;2023-02-28T00:51:56;2.95;;;2.15;;
21721;SDS011;11023;48.274;7.794;2023-02-28T00:54:34;4.20;;;2.22;;
21721;SDS011;11023;48.274;7.794;2023-02-28T00:57:08;3.00;;;2.13;;
21721;SDS011;11023;48.274;7.794;2023-02-28T00:59:56;3.78;;;2.33;;
21721;SDS011;11023;48.274;7.794;2023-02-28T01:02:24;3.75;;;1.98;;
21721;SDS011;11023;48.274;7.794;2023-02-28T01:05:00;3.67;;;1.90;;
21721;SDS011;11023;48.274;7.794;2023-02-28T01:07:28;3.72;;;2.22;;
21721;SDS011;11023;48.274;7.794;2023-02-28T01:09:56;2.50;;;1.75;;
21721;SDS011;11023;48.274;7.794;2023-02-28T01:12:22;5.20;;;1.80;;
21721;SDS011;11023;48.274;7.794;2023-02-28T01:15:31;3.65;;;2.25;;
21721;SDS011;11023;48.274;7.794;2023-02-28T01:18:04;3.42;;;2.20;;
21721;SDS011;11023;48.274;7.794;2023-02-28T01:20:38;3.08;;;1.75;;
21721;SDS011;11023;48.274;7.794;2023-02-28T01:23:04;3.17;;;2.03;;
21721;SDS011;11023;48.274;7.794;2023-02-28T01:25:54;3.75;;;2.28;;
21721;SDS011;11023;48.274;7.794;2023-02-28T01:28:16;3.17;;;1.90;;
21721;SDS011;11023;48.274;7.794;2023-02-28T01:30:48;4.53;;;2.20;;
21721;SDS011;11023;48.274;7.794;2023-02-28T01:33:20;4.03;;;1.90;;
21721;SDS011;11023;48.274;7.794;2023-02-28T01:35:56;3.35;;;2.15;;
21721;SDS011;11023;48.274;7.794;2023-02-28T01:38:42;2.58;;;1.90;;
21721;SDS011;11023;48.274;7.794;2023-02-28T01:47:30;4.03;;;2.00;;
21721;SDS011;11023;48.274;7.794;2023-02-28T01:50:14;5.07;;;2.17;;
21721;SDS011;11023;48.274;7.794;2023-02-28T01:52:47;4.50;;;2.30;;
21721;SDS011;11023;48.274;7.794;2023-02-28T01:55:14;4.43;;;2.03;;
21721;SDS011;11023;48.274;7.794;2023-02-28T01:57:48;3.72;;;2.17;;
21721;SDS011;11023;48.274;7.794;2023-02-28T02:00:26;3.85;;;2.60;;
21721;SDS011;11023;48.274;7.794;2023-02-28T02:03:04;5.03;;;2.60;;
21721;SDS011;11023;48.274;7.794;2023-02-28T02:05:36;3.67;;;2.33;;
21721;SDS011;11023;48.274;7.794;2023-02-28T02:08:16;4.88;;;2.50;;
21721;SDS011;11023;48.274;7.794;2023-02-28T02:11:04;3.90;;;2.40;;
21721;SDS011;11023;48.274;7.794;2023-02-28T02:22:44;5.53;;;2.83;;
21721;SDS011;11023;48.274;7.794;2023-02-28T02:36:45;5.35;;;2.88;;
21721;SDS011;11023;48.274;7.794;2023-02-28T02:39:31;5.47;;;2.78;;
21721;SDS011;11023;48.274;7.794;2023-02-28T02:42:14;5.43;;;2.90;;
21721;SDS011;11023;48.274;7.794;2023-02-28T02:44:46;3.97;;;2.60;;
21721;SDS011;11023;48.274;7.794;2023-02-28T02:47:17;5.25;;;2.90;;
21721;SDS011;11023;48.274;7.794;2023-02-28T02:49:47;5.40;;;3.17;;
21721;SDS011;11023;48.274;7.794;2023-02-28T02:52:20;3.38;;;2.72;;
21721;SDS011;11023;48.274;7.794;2023-02-28T02:54:50;5.00;;;2.78;;
21721;SDS011;11023;48.274;7.794;2023-02-28T02:57:23;7.07;;;3.13;;
21721;SDS011;11023;48.274;7.794;2023-02-28T02:59:58;6.07;;;2.97;;
21721;SDS011;11023;48.274;7.794;2023-02-28T03:02:25;4.63;;;2.70;;
21721;SDS011;11023;48.274;7.794;2023-02-28T03:04:59;4.57;;;2.80;;
21721;SDS011;11023;48.274;7.794;2023-02-28T03:07:28;4.80;;;2.88;;
21721;SDS011;11023;48.274;7.794;2023-02-28T03:09:54;3.95;;;2.78;;
21721;SDS011;11023;48.274;7.794;2023-02-28T03:12:33;4.10;;;2.80;;
21721;SDS011;11023;48.274;7.794;2023-02-28T03:15:21;3.85;;;2.97;;
21721;SDS011;11023;48.274;7.794;2023-02-28T03:18:16;4.07;;;2.83;;
21721;SDS011;11023;48.274;7.794;2023-02-28T03:20:47;3.80;;;2.92;;
21721;SDS011;11023;48.274;7.794;2023-02-28T03:23:35;5.57;;;3.05;;
21721;SDS011;11023;48.274;7.794;2023-02-28T03:26:15;4.90;;;3.08;;
21721;SDS011;11023;48.274;7.794;2023-02-28T03:29:00;4.65;;;3.50;;
21721;SDS011;11023;48.274;7.794;2023-02-28T03:34:37;7.60;;;3.33;;
21721;SDS011;11023;48.274;7.794;2023-02-28T03:37:14;5.75;;;3.13;;
21721;SDS011;11023;48.274;7.794;2023-02-28T03:39:55;6.55;;;3.30;;
21721;SDS011;11023;48.274;7.794;2023-02-28T03:42:26;5.20;;;3.30;;
21721;SDS011;11023;48.274;7.794;2023-02-28T03:44:56;7.20;;;3.20;;
21721;SDS011;11023;48.274;7.794;2023-02-28T03:47:27;5.95;;;3.50;;
21721;SDS011;11023;48.274;7.794;2023-02-28T03:52:50;5.32;;;3.40;;
21721;SDS011;11023;48.274;7.794;2023-02-28T03:55:25;6.90;;;3.60;;
21721;SDS011;11023;48.274;7.794;2023-02-28T03:58:37;5.30;;;3.80;;
21721;SDS011;11023;48.274;7.794;2023-02-28T04:00:52;6.03;;;3.42;;
21721;SDS011;11023;48.274;7.794;2023-02-28T04:03:32;6.68;;;3.70;;
21721;SDS011;11023;48.274;7.794;2023-02-28T04:05:59;5.63;;;3.38;;
21721;SDS011;11023;48.274;7.794;2023-02-28T04:08:30;7.72;;;3.88;;
21721;SDS011;11023;48.274;7.794;2023-02-28T04:11:06;5.82;;;3.25;;
21721;SDS011;11023;48.274;7.794;2023-02-28T04:13:59;5.35;;;3.72;;
21721;SDS011;11023;48.274;7.794;2023-02-28T04:16:28;7.20;;;4.00;;
21721;SDS011;11023;48.274;7.794;2023-02-28T04:19:05;6.25;;;4.07;;
21721;SDS011;11023;48.274;7.794;2023-02-28T04:24:13;4.80;;;3.60;;
21721;SDS011;11023;48.274;7.794;2023-02-28T04:26:43;6.60;;;3.90;;
21721;SDS011;11023;48.274;7.794;2023-02-28T04:29:11;7.30;;;3.95;;
21721;SDS011;11023;48.274;7.794;2023-02-28T04:31:38;5.68;;;3.88;;
21721;SDS011;11023;48.274;7.794;2023-02-28T04:34:05;6.15;;;4.03;;
21721;SDS011;11023;48.274;7.794;2023-02-28T04:36:31;6.45;;;3.90;;
21721;SDS011;11023;48.274;7.794;2023-02-28T04:39:00;7.13;;;3.83;;
21721;SDS011;11023;48.274;7.794;2023-02-28T04:41:25;5.30;;;3.85;;
21721;SDS011;11023;48.274;7.794;2023-02-28T04:43:51;5.25;;;3.58;;
21721;SDS011;11023;48.274;7.794;2023-02-28T04:46:20;5.72;;;4.03;;
21721;SDS011;11023;48.274;7.794;2023-02-28T04:48:50;5.85;;;4.22;;
21721;SDS011;11023;48.274;7.794;2023-02-28T04:51:19;6.00;;;4.40;;
21721;SDS011;11023;48.274;7.794;2023-02-28T04:53:45;6.28;;;4.05;;
21721;SDS011;11023;48.274;7.794;2023-02-28T04:56:14;7.15;;;4.10;;
21721;SDS011;11023;48.274;7.794;2023-02-28T04:58:41;6.60;;;4.28;;
21721;SDS011;11023;48.274;7.794;2023-02-28T05:01:44;8.20;;;4.20;;
21721;SDS011;11023;48.274;7.794;2023-02-28T05:04:03;6.90;;;4.25;;
21721;SDS011;11023;48.274;7.794;2023-02-28T05:06:34;10.38;;;4.40;;
21721;SDS011;11023;48.274;7.794;2023-02-28T05:09:00;7.35;;;4.50;;
21721;SDS011;11023;48.274;7.794;2023-02-28T05:14:09;7.65;;;4.63;;
21721;SDS011;11023;48.274;7.794;2023-02-28T05:16:37;5.78;;;4.30;;
21721;SDS011;11023;48.274;7.794;2023-02-28T05:19:11;7.85;;;4.68;;
21721;SDS011;11023;48.274;7.794;2023-02-28T05:22:00;9.27;;;4.32;;
21721;SDS011;11023;48.274;7.794;2023-02-28T05:24:27;6.75;;;4.55;;
21721;SDS011;11023;48.274;7.794;2023-02-28T05:26:55;7.85;;;4.47;;
21721;SDS011;11023;48.274;7.794;2023-02-28T05:29:24;6.07;;;4.45;;
21721;SDS011;11023;48.274;7.794;2023-02-28T05:31:50;6.95;;;4.45;;
21721;SDS011;11023;48.274;7.794;2023-02-28T05:34:15;6.93;;;4.78;;
21721;SDS011;11023;48.274;7.794;2023-02-28T05:36:44;6.72;;;4.70;;
21721;SDS011;11023;48.274;7.794;2023-02-28T05:39:15;7.80;;;4.80;;
21721;SDS011;11023;48.274;7.794;2023-02-28T05:41:50;6.25;;;4.18;;
21721;SDS011;11023;48.274;7.794;2023-02-28T05:44:24;6.28;;;4.38;;
21721;SDS011;11023;48.274;7.794;2023-02-28T05:47:08;8.30;;;4.75;;
21721;SDS011;11023;48.274;7.794;2023-02-28T05:49:33;9.95;;;5.10;;
21721;SDS011;11023;48.274;7.794;2023-02-28T05:52:02;8.07;;;5.00;;
21721;SDS011;11023;48.274;7.794;2023-02-28T05:57:04;8.13;;;4.80;;
21721;SDS011;11023;48.274;7.794;2023-02-28T05:59:30;7.47;;;5.20;;
21721;SDS011;11023;48.274;7.794;2023-02-28T06:01:55;9.10;;;5.05;;
21721;SDS011;11023;48.274;7.794;2023-02-28T06:04:29;7.07;;;4.93;;
21721;SDS011;11023;48.274;7.794;2023-02-28T06:07:15;9.40;;;5.10;;
21721;SDS011;11023;48.274;7.794;2023-02-28T06:09:42;9.75;;;5.47;;
21721;SDS011;11023;48.274;7.794;2023-02-28T06:12:09;7.53;;;4.85;;
21721;SDS011;11023;48.274;7.794;2023-02-28T06:14:35;7.10;;;4.80;;
21721;SDS011;11023;48.274;7.794;2023-02-28T06:17:02;9.82;;;5.30;;
21721;SDS011;11023;48.274;7.794;2023-02-28T06:19:31;8.15;;;5.50;;
21721;SDS011;11023;48.274;7.794;2023-02-28T06:21:57;8.50;;;5.63;;
21721;SDS011;11023;48.274;7.794;2023-02-28T06:24:24;10.15;;;5.70;;
21721;SDS011;11023;48.274;7.794;2023-02-28T06:26:52;8.98;;;5.85;;
21721;SDS011;11023;48.274;7.794;2023-02-28T06:29:18;8.68;;;5.30;;
21721;SDS011;11023;48.274;7.794;2023-02-28T06:31:44;6.78;;;5.45;;
21721;SDS011;11023;48.274;7.794;2023-02-28T06:34:10;8.52;;;5.68;;
21721;SDS011;11023;48.274;7.794;2023-02-28T06:36:37;7.78;;;5.45;;
21721;SDS011;11023;48.274;7.794;2023-02-28T06:39:04;8.40;;;5.65;;
21721;SDS011;11023;48.274;7.794;2023-02-28T06:41:30;8.95;;;5.75;;
21721;SDS011;11023;48.274;7.794;2023-02-28T06:43:57;8.82;;;5.80;;
21721;SDS011;11023;48.274;7.794;2023-02-28T06:46:22;7.95;;;5.75;;
21721;SDS011;11023;48.274;7.794;2023-02-28T06:48:48;11.70;;;5.82;;
21721;SDS011;11023;48.274;7.794;2023-02-28T06:51:18;8.63;;;5.88;;
21721;SDS011;11023;48.274;7.794;2023-02-28T06:53:47;8.48;;;5.78;;
21721;SDS011;11023;48.274;7.794;2023-02-28T06:56:14;8.25;;;6.28;;
21721;SDS011;11023;48.274;7.794;2023-02-28T06:58:41;9.90;;;6.25;;
21721;SDS011;11023;48.274;7.794;2023-02-28T07:01:07;11.05;;;6.07;;
21721;SDS011;11023;48.274;7.794;2023-02-28T07:03:34;14.57;;;7.10;;
21721;SDS011;11023;48.274;7.794;2023-02-28T07:06:01;12.23;;;7.15;;
21721;SDS011;11023;48.274;7.794;2023-02-28T07:08:27;10.13;;;6.40;;
21721;SDS011;11023;48.274;7.794;2023-02-28T07:10:56;9.45;;;5.95;;
21721;SDS011;11023;48.274;7.794;2023-02-28T07:13:22;8.60;;;5.70;;
21721;SDS011;11023;48.274;7.794;2023-02-28T07:16:00;10.75;;;6.40;;
21721;SDS011;11023;48.274;7.794;2023-02-28T07:18:28;8.52;;;6.07;;
21721;SDS011;11023;48.274;7.794;2023-02-28T07:20:54;9.48;;;6.00;;
21721;SDS011;11023;48.274;7.794;2023-02-28T07:23:20;12.13;;;7.07;;
21721;SDS011;11023;48.274;7.794;2023-02-28T07:25:46;9.05;;;6.55;;
21721;SDS011;11023;48.274;7.794;2023-02-28T07:28:12;10.43;;;6.78;;
21721;SDS011;11023;48.274;7.794;2023-02-28T07:30:38;13.73;;;6.32;;
21721;SDS011;11023;48.274;7.794;2023-02-28T07:33:04;9.27;;;6.78;;
21721;SDS011;11023;48.274;7.794;2023-02-28T07:35:30;11.43;;;6.85;;
21721;SDS011;11023;48.274;7.794;2023-02-28T07:37:59;11.07;;;6.47;;
21721;SDS011;11023;48.274;7.794;2023-02-28T07:40:26;10.93;;;6.63;;
21721;SDS011;11023;48.274;7.794;2023-02-28T07:42:51;11.63;;;6.93;;
21721;SDS011;11023;48.274;7.794;2023-02-28T07:45:17;9.13;;;6.47;;
21721;SDS011;11023;48.274;7.794;2023-02-28T07:47:44;9.80;;;6.82;;
21721;SDS011;11023;48.274;7.794;2023-02-28T07:50:11;9.25;;;6.53;;
21721;SDS011;11023;48.274;7.794;2023-02-28T07:52:38;10.30;;;7.25;;
21721;SDS011;11023;48.274;7.794;2023-02-28T07:55:05;10.75;;;7.22;;
21721;SDS011;11023;48.274;7.794;2023-02-28T07:57:32;11.48;;;7.22;;
21721;SDS011;11023;48.274;7.794;2023-02-28T07:59:58;10.05;;;6.75;;
21721;SDS011;11023;48.274;7.794;2023-02-28T08:02:24;9.70;;;6.82;;
21721;SDS011;11023;48.274;7.794;2023-02-28T08:04:49;9.73;;;6.47;;
21721;SDS011;11023;48.274;7.794;2023-02-28T08:07:16;13.07;;;7.40;;
21721;SDS011;11023;48.274;7.794;2023-02-28T08:09:43;10.27;;;7.05;;
21721;SDS011;11023;48.274;7.794;2023-02-28T08:12:09;11.98;;;7.28;;
21721;SDS011;11023;48.274;7.794;2023-02-28T08:14:36;9.45;;;6.95;;
21721;SDS011;11023;48.274;7.794;2023-02-28T08:17:02;10.43;;;7.07;;
21721;SDS011;11023;48.274;7.794;2023-02-28T08:19:28;9.75;;;7.10;;
21721;SDS011;11023;48.274;7.794;2023-02-28T08:21:54;13.60;;;7.68;;
21721;SDS011;11023;48.274;7.794;2023-02-28T08:24:20;12.65;;;7.78;;
21721;SDS011;11023;48.274;7.794;2023-02-28T08:26:46;12.25;;;7.55;;
21721;SDS011;11023;48.274;7.794;2023-02-28T08:29:12;11.25;;;7.57;;
21721;SDS011;11023;48.274;7.794;2023-02-28T08:31:38;11.57;;;7.28;;
21721;SDS011;11023;48.274;7.794;2023-02-28T08:34:10;12.90;;;7.85;;
21721;SDS011;11023;48.274;7.794;2023-02-28T08:36:38;11.75;;;7.85;;
21721;SDS011;11023;48.274;7.794;2023-02-28T08:39:04;10.15;;;6.82;;
21721;SDS011;11023;48.274;7.794;2023-02-28T08:41:29;10.18;;;7.25;;
21721;SDS011;11023;48.274;7.794;2023-02-28T08:43:55;15.55;;;8.20;;
21721;SDS011;11023;48.274;7.794;2023-02-28T08:46:21;11.82;;;7.47;;
21721;SDS011;11023;48.274;7.794;2023-02-28T08:48:51;13.65;;;8.10;;
21721;SDS011;11023;48.274;7.794;2023-02-28T08:51:18;12.65;;;7.53;;
21721;SDS011;11023;48.274;7.794;2023-02-28T08:53:51;11.57;;;7.60;;
21721;SDS011;11023;48.274;7.794;2023-02-28T08:56:18;12.07;;;8.05;;
21721;SDS011;11023;48.274;7.794;2023-02-28T08:58:45;12.60;;;7.80;;
21721;SDS011;11023;48.274;7.794;2023-02-28T09:01:19;13.32;;;8.27;;
21721;SDS011;11023;48.274;7.794;2023-02-28T09:03:46;13.75;;;8.07;;
21721;SDS011;11023;48.274;7.794;2023-02-28T09:06:13;11.63;;;7.90;;
21721;SDS011;11023;48.274;7.794;2023-02-28T09:08:39;10.88;;;7.72;;
21721;SDS011;11023;48.274;7.794;2023-02-28T09:11:06;12.55;;;8.02;;
21721;SDS011;11023;48.274;7.794;2023-02-28T09:13:32;12.55;;;8.00;;
21721;SDS011;11023;48.274;7.794;2023-02-28T09:16:00;14.90;;;8.35;;
21721;SDS011;11023;48.274;7.794;2023-02-28T09:18:27;14.00;;;8.70;;
21721;SDS011;11023;48.274;7.794;2023-02-28T09:20:53;12.93;;;7.93;;
21721;SDS011;11023;48.274;7.794;2023-02-28T09:23:19;10.38;;;7.60;;
21721;SDS011;11023;48.274;7.794;2023-02-28T09:25:46;11.73;;;7.95;;
21721;SDS011;11023;48.274;7.794;2023-02-28T09:28:13;12.75;;;7.90;;
21721;SDS011;11023;48.274;7.794;2023-02-28T09:30:45;10.98;;;7.97;;
21721;SDS011;11023;48.274;7.794;2023-02-28T09:33:13;12.88;;;8.18;;
21721;SDS011;11023;48.274;7.794;2023-02-28T09:35:39;10.75;;;8.27;;
21721;SDS011;11023;48.274;7.794;2023-02-28T09:38:05;11.63;;;8.27;;
21721;SDS011;11023;48.274;7.794;2023-02-28T09:40:34;12.80;;;8.40;;
21721;SDS011;11023;48.274;7.794;2023-02-28T09:43:02;16.77;;;8.95;;
21721;SDS011;11023;48.274;7.794;2023-02-28T09:45:29;11.30;;;8.00;;
21721;SDS011;11023;48.274;7.794;2023-02-28T09:48:09;15.95;;;8.43;;
21721;SDS011;11023;48.274;7.794;2023-02-28T09:50:41;10.85;;;8.05;;
21721;SDS011;11023;48.274;7.794;2023-02-28T09:53:21;11.18;;;8.18;;
21721;SDS011;11023;48.274;7.794;2023-02-28T09:55:59;13.60;;;8.85;;
21721;SDS011;11023;48.274;7.794;2023-02-28T10:01:06;13.45;;;7.90;;
21721;SDS011;11023;48.274;7.794;2023-02-28T10:06:14;12.80;;;8.80;;
21721;SDS011;11023;48.274;7.794;2023-02-28T10:11:26;16.50;;;8.65;;
21721;SDS011;11023;48.274;7.794;2023-02-28T10:14:01;16.58;;;9.00;;
21721;SDS011;11023;48.274;7.794;2023-02-28T10:16:35;12.93;;;8.50;;
21721;SDS011;11023;48.274;7.794;2023-02-28T10:19:10;12.77;;;8.55;;
21721;SDS011;11023;48.274;7.794;2023-02-28T10:21:53;12.35;;;8.48;;
21721;SDS011;11023;48.274;7.794;2023-02-28T10:24:41;12.00;;;8.82;;
21721;SDS011;11023;48.274;7.794;2023-02-28T10:27:18;11.32;;;7.75;;
21721;SDS011;11023;48.274;7.794;2023-02-28T10:29:50;14.57;;;8.68;;
21721;SDS011;11023;48.274;7.794;2023-02-28T10:32:18;14.40;;;9.00;;
21721;SDS011;11023;48.274;7.794;2023-02-28T10:34:55;13.20;;;8.70;;
21721;SDS011;11023;48.274;7.794;2023-02-28T10:37:25;13.85;;;8.75;;
21721;SDS011;11023;48.274;7.794;2023-02-28T10:39:52;13.95;;;8.32;;
21721;SDS011;11023;48.274;7.794;2023-02-28T10:45:04;13.95;;;8.90;;
21721;SDS011;11023;48.274;7.794;2023-02-28T10:47:31;14.02;;;8.80;;
21721;SDS011;11023;48.274;7.794;2023-02-28T10:49:59;12.57;;;8.95;;
21721;SDS011;11023;48.274;7.794;2023-02-28T10:52:32;11.70;;;8.73;;
21721;SDS011;11023;48.274;7.794;2023-02-28T10:55:18;13.20;;;8.75;;
21721;SDS011;11023;48.274;7.794;2023-02-28T10:57:50;13.98;;;8.82;;
21721;SDS011;11023;48.274;7.794;2023-02-28T11:00:21;15.07;;;9.88;;
21721;SDS011;11023;48.274;7.794;2023-02-28T11:02:50;17.55;;;10.15;;
21721;SDS011;11023;48.274;7.794;2023-02-28T11:07:55;14.27;;;9.10;;
21721;SDS011;11023;48.274;7.794;2023-02-28T11:10:30;12.15;;;9.00;;
21721;SDS011;11023;48.274;7.794;2023-02-28T11:12:59;14.38;;;8.88;;
21721;SDS011;11023;48.274;7.794;2023-02-28T11:15:30;15.38;;;9.43;;
21721;SDS011;11023;48.274;7.794;2023-02-28T11:20:26;14.63;;;9.38;;
21721;SDS011;11023;48.274;7.794;2023-02-28T11:22:54;13.63;;;8.88;;
21721;SDS011;11023;48.274;7.794;2023-02-28T11:25:38;14.80;;;9.38;;
21721;SDS011;11023;48.274;7.794;2023-02-28T11:28:23;15.55;;;9.57;;
21721;SDS011;11023;48.274;7.794;2023-02-28T11:31:03;13.93;;;9.80;;
21721;SDS011;11023;48.274;7.794;2023-02-28T11:33:30;16.65;;;9.52;;
21721;SDS011;11023;48.274;7.794;2023-02-28T11:35:58;17.73;;;9.88;;
21721;SDS011;11023;48.274;7.794;2023-02-28T11:38:33;14.80;;;9.88;;
21721;SDS011;11023;48.274;7.794;2023-02-28T11:46:33;16.58;;;9.60;;
21721;SDS011;11023;48.274;7.794;2023-02-28T12:05:45;14.02;;;10.00;;
21721;SDS011;11023;48.274;7.794;2023-02-28T12:08:34;15.10;;;9.80;;
21721;SDS011;11023;48.274;7.794;2023-02-28T12:11:21;13.45;;;9.52;;
21721;SDS011;11023;48.274;7.794;2023-02-28T12:16:37;14.98;;;9.98;;
21721;SDS011;11023;48.274;7.794;2023-02-28T12:19:39;13.90;;;9.30;;
21721;SDS011;11023;48.274;7.794;2023-02-28T12:27:44;14.27;;;9.48;;
21721;SDS011;11023;48.274;7.794;2023-02-28T12:30:13;16.30;;;10.23;;
21721;SDS011;11023;48.274;7.794;2023-02-28T12:33:07;16.42;;;9.70;;
21721;SDS011;11023;48.274;7.794;2023-02-28T12:35:38;15.88;;;10.60;;
21721;SDS011;11023;48.274;7.794;2023-02-28T12:38:12;16.15;;;9.30;;
21721;SDS011;11023;48.274;7.794;2023-02-28T12:43:13;12.82;;;9.43;;
21721;SDS011;11023;48.274;7.794;2023-02-28T12:48:22;13.07;;;9.45;;
21721;SDS011;11023;48.274;7.794;2023-02-28T12:50:54;15.80;;;9.65;;
21721;SDS011;11023;48.274;7.794;2023-02-28T12:53:25;13.77;;;9.63;;
21721;SDS011;11023;48.274;7.794;2023-02-28T12:55:59;14.07;;;9.68;;
21721;SDS011;11023;48.274;7.794;2023-02-28T12:58:50;14.63;;;9.43;;
21721;SDS011;11023;48.274;7.794;2023-02-28T13:09:22;13.82;;;9.20;;
21721;SDS011;11023;48.274;7.794;2023-02-28T13:11:49;13.48;;;8.68;;
21721;SDS011;11023;48.274;7.794;2023-02-28T13:19:22;12.50;;;9.02;;
21721;SDS011;11023;48.274;7.794;2023-02-28T13:21:51;14.07;;;9.73;;
21721;SDS011;11023;48.274;7.794;2023-02-28T13:29:41;13.75;;;10.15;;
21721;SDS011;11023;48.274;7.794;2023-02-28T13:34:35;13.55;;;9.30;;
21721;SDS011;11023;48.274;7.794;2023-02-28T13:39:47;12.13;;;9.50;;
21721;SDS011;11023;48.274;7.794;2023-02-28T14:06:58;13.32;;;10.10;;
21721;SDS011;11023;48.274;7.794;2023-02-28T14:18:05;13.00;;;9.60;;
21721;SDS011;11023;48.274;7.794;2023-02-28T14:21:02;14.05;;;9.90;;
21721;SDS011;11023;48.274;7.794;2023-02-28T14:23:45;17.40;;;12.88;;
21721;SDS011;11023;48.274;7.794;2023-02-28T14:37:36;15.75;;;9.45;;
21721;SDS011;11023;48.274;7.794;2023-02-28T14:40:04;12.00;;;8.25;;
21721;SDS011;11023;48.274;7.794;2023-02-28T14:42:37;12.63;;;8.90;;
21721;SDS011;11023;48.274;7.794;2023-02-28T14:45:17;13.73;;;9.35;;
21721;SDS011;11023;48.274;7.794;2023-02-28T14:47:44;13.68;;;9.45;;
21721;SDS011;11023;48.274;7.794;2023-02-28T14:50:17;12.98;;;9.30;;
21721;SDS011;11023;48.274;7.794;2023-02-28T14:52:45;10.73;;;8.48;;
21721;SDS011;11023;48.274;7.794;2023-02-28T14:55:14;10.02;;;7.82;;
21721;SDS011;11023;48.274;7.794;2023-02-28T14:57:53;12.85;;;8.13;;
21721;SDS011;11023;48.274;7.794;2023-02-28T15:00:32;10.18;;;8.07;;
21721;SDS011;11023;48.274;7.794;2023-02-28T15:03:00;10.93;;;8.00;;
21721;SDS011;11023;48.274;7.794;2023-02-28T15:05:42;11.70;;;8.40;;
21721;SDS011;11023;48.274;7.794;2023-02-28T15:08:16;12.38;;;8.68;;
21721;SDS011;11023;48.274;7.794;2023-02-28T15:10:42;10.48;;;8.52;;
21721;SDS011;11023;48.274;7.794;2023-02-28T15:13:19;9.73;;;7.95;;
21721;SDS011;11023;48.274;7.794;2023-02-28T15:15:56;11.88;;;7.90;;
21721;SDS011;11023;48.274;7.794;2023-02-28T15:18:37;11.77;;;8.50;;
21721;SDS011;11023;48.274;7.794;2023-02-28T15:21:12;12.30;;;8.63;;
21721;SDS011;11023;48.274;7.794;2023-02-28T15:24:00;11.18;;;8.93;;
21721;SDS011;11023;48.274;7.794;2023-02-28T15:26:34;11.95;;;9.50;;
21721;SDS011;11023;48.274;7.794;2023-02-28T15:29:08;13.32;;;9.18;;
21721;SDS011;11023;48.274;7.794;2023-02-28T15:32:00;11.70;;;9.05;;
21721;SDS011;11023;48.274;7.794;2023-02-28T15:34:35;13.20;;;9.63;;
21721;SDS011;11023;48.274;7.794;2023-02-28T15:40:24;11.77;;;9.32;;
21721;SDS011;11023;48.274;7.794;2023-02-28T15:48:03;12.25;;;9.60;;
21721;SDS011;11023;48.274;7.794;2023-02-28T15:50:31;14.75;;;9.90;;
21721;SDS011;11023;48.274;7.794;2023-02-28T15:52:57;15.90;;;10.02;;
21721;SDS011;11023;48.274;7.794;2023-02-28T15:55:23;13.77;;;9.55;;
21721;SDS011;11023;48.274;7.794;2023-02-28T15:57:53;12.15;;;9.50;;
21721;SDS011;11023;48.274;7.794;2023-02-28T16:00:25;15.00;;;9.70;;
21721;SDS011;11023;48.274;7.794;2023-02-28T16:02:57;11.45;;;9.25;;
21721;SDS011;11023;48.274;7.794;2023-02-28T16:05:25;13.80;;;9.80;;
21721;SDS011;11023;48.274;7.794;2023-02-28T16:07:59;12.82;;;9.32;;
21721;SDS011;11023;48.274;7.794;2023-02-28T16:10:27;11.50;;;9.18;;
21721;SDS011;11023;48.274;7.794;2023-02-28T16:12:54;13.10;;;9.15;;
21721;SDS011;11023;48.274;7.794;2023-02-28T16:15:25;13.13;;;9.02;;
21721;SDS011;11023;48.274;7.794;2023-02-28T16:17:53;14.30;;;9.45;;
21721;SDS011;11023;48.274;7.794;2023-02-28T16:20:24;12.05;;;9.77;;
21721;SDS011;11023;48.274;7.794;2023-02-28T16:22:52;11.38;;;9.05;;
21721;SDS011;11023;48.274;7.794;2023-02-28T16:25:19;15.68;;;9.73;;
21721;SDS011;11023;48.274;7.794;2023-02-28T16:27:51;13.77;;;8.95;;
21721;SDS011;11023;48.274;7.794;2023-02-28T16:30:25;13.05;;;8.82;;
21721;SDS011;11023;48.274;7.794;2023-02-28T16:32:53;12.90;;;9.02;;
21721;SDS011;11023;48.274;7.794;2023-02-28T16:35:20;12.70;;;8.82;;
21721;SDS011;11023;48.274;7.794;2023-02-28T16:37:47;13.40;;;9.40;;
21721;SDS011;11023;48.274;7.794;2023-02-28T16:40:14;13.50;;;9.63;;
21721;SDS011;11023;48.274;7.794;2023-02-28T16:42:46;16.10;;;9.10;;
21721;SDS011;11023;48.274;7.794;2023-02-28T16:45:23;12.00;;;8.95;;
21721;SDS011;11023;48.274;7.794;2023-02-28T16:47:53;12.98;;;9.07;;
21721;SDS011;11023;48.274;7.794;2023-02-28T16:50:20;12.23;;;9.10;;
21721;SDS011;11023;48.274;7.794;2023-02-28T16:52:57;15.45;;;9.48;;
21721;SDS011;11023;48.274;7.794;2023-02-28T16:55:23;12.10;;;8.80;;
21721;SDS011;11023;48.274;7.794;2023-02-28T16:57:52;17.17;;;9.75;;
21721;SDS011;11023;48.274;7.794;2023-02-28T17:00:19;14.50;;;10.38;;
21721;SDS011;11023;48.274;7.794;2023-02-28T17:02:45;23.27;;;9.45;;
21721;SDS011;11023;48.274;7.794;2023-02-28T17:05:11;13.55;;;9.20;;
21721;SDS011;11023;48.274;7.794;2023-02-28T17:07:38;25.15;;;9.45;;
21721;SDS011;11023;48.274;7.794;2023-02-28T17:10:10;15.43;;;10.02;;
21721;SDS011;11023;48.274;7.794;2023-02-28T17:12:42;13.85;;;9.40;;
21721;SDS011;11023;48.274;7.794;2023-02-28T17:15:08;16.10;;;10.20;;
21721;SDS011;11023;48.274;7.794;2023-02-28T17:17:39;13.60;;;9.90;;
21721;SDS011;11023;48.274;7.794;2023-02-28T17:20:06;16.25;;;10.73;;
21721;SDS011;11023;48.274;7.794;2023-02-28T17:22:39;21.67;;;10.90;;
21721;SDS011;11023;48.274;7.794;2023-02-28T17:25:05;22.05;;;11.70;;
21721;SDS011;11023;48.274;7.794;2023-02-28T17:27:31;20.50;;;11.88;;
21721;SDS011;11023;48.274;7.794;2023-02-28T17:29:56;15.25;;;10.55;;
21721;SDS011;11023;48.274;7.794;2023-02-28T17:32:22;15.63;;;9.68;;
21721;SDS011;11023;48.274;7.794;2023-02-28T17:34:48;15.32;;;10.65;;
21721;SDS011;11023;48.274;7.794;2023-02-28T17:37:14;17.02;;;10.45;;
21721;SDS011;11023;48.274;7.794;2023-02-28T17:39:40;16.42;;;10.27;;
21721;SDS011;11023;48.274;7.794;2023-02-28T17:42:05;15.93;;;11.00;;
21721;SDS011;11023;48.274;7.794;2023-02-28T17:44:31;15.40;;;10.23;;
21721;SDS011;11023;48.274;7.794;2023-02-28T17:46:58;18.50;;;11.40;;
21721;SDS011;11023;48.274;7.794;2023-02-28T17:49:24;16.65;;;11.75;;
21721;SDS011;11023;48.274;7.794;2023-02-28T17:51:49;20.77;;;12.10;;
21721;SDS011;11023;48.274;7.794;2023-02-28T17:54:15;17.00;;;11.48;;
21721;SDS011;11023;48.274;7.794;2023-02-28T17:56:41;16.30;;;11.35;;
21721;SDS011;11023;48.274;7.794;2023-02-28T17:59:09;21.00;;;13.63;;
21721;SDS011;11023;48.274;7.794;2023-02-28T18:01:36;23.02;;;14.45;;